createdAt,value
2023-04-06T00:00:00.173Z,34.89
2023-04-06T00:00:22.349Z,34.97
2023-04-06T00:00:44.073Z,34.92
2023-04-06T00:01:06.040Z,34.88
2023-04-06T00:01:27.908Z,34.83
2023-04-06T00:01:51.085Z,34.91
2023-04-06T00:02:13.021Z,35.14
2023-04-06T00:02:36.221Z,35.12
2023-04-06T00:02:58.101Z,35.13
2023-04-06T00:03:21.116Z,35.24
2023-04-06T00:03:43.199Z,35.23
2023-04-06T00:04:05.832Z,35.11
2023-04-06T00:04:27.745Z,35.15
2023-04-06T00:04:49.499Z,35.18
2023-04-06T00:05:12.174Z,35.21
2023-04-06T00:05:33.883Z,35.32
2023-04-06T00:05:56.537Z,34.94
2023-04-06T00:06:18.321Z,35.10
2023-04-06T00:06:41.348Z,35.08
2023-04-06T00:07:03.188Z,35.11
2023-04-06T00:07:24.922Z,35.22
2023-04-06T00:07:46.657Z,35.20
2023-04-06T00:08:09.336Z,35.22
2023-04-06T00:08:31.378Z,35.08
2023-04-06T00:08:53.177Z,35.16
2023-04-06T00:09:14.984Z,35.39
2023-04-06T00:09:36.878Z,35.35
2023-04-06T00:10:15.720Z,35.32
2023-04-06T00:10:38.511Z,35.36
2023-04-06T00:11:00.293Z,35.46
2023-04-06T00:11:22.096Z,35.61
2023-04-06T00:11:43.813Z,35.63
2023-04-06T00:12:07.114Z,35.69
2023-04-06T00:12:28.878Z,35.70
2023-04-06T00:12:50.870Z,35.81
2023-04-06T00:13:12.690Z,35.85
2023-04-06T00:13:35.367Z,35.90
2023-04-06T00:13:57.038Z,36.06
2023-04-06T00:14:18.801Z,36.14
2023-04-06T00:14:41.405Z,36.25
2023-04-06T00:15:03.914Z,36.16
2023-04-06T00:15:26.830Z,35.93
2023-04-06T00:15:48.551Z,35.90
2023-04-06T00:16:10.446Z,36.19
2023-04-06T00:16:32.191Z,35.93
2023-04-06T00:16:54.081Z,35.88
2023-04-06T00:17:16.770Z,35.64
2023-04-06T00:17:39.936Z,35.44
2023-04-06T00:18:01.894Z,35.36
2023-04-06T00:18:24.112Z,35.51
2023-04-06T00:18:46.935Z,35.39
2023-04-06T00:19:08.789Z,35.35
2023-04-06T00:19:30.701Z,35.24
2023-04-06T00:19:52.479Z,35.28
2023-04-06T00:20:14.241Z,35.09
2023-04-06T00:20:36.952Z,35.09
2023-04-06T00:20:58.700Z,35.45
2023-04-06T00:21:20.406Z,35.65
2023-04-06T00:21:42.291Z,35.59
2023-04-06T00:22:04.176Z,35.68
2023-04-06T00:22:26.930Z,35.79
2023-04-06T00:22:48.679Z,36.04
2023-04-06T00:23:10.535Z,36.37
2023-04-06T00:23:32.287Z,36.36
2023-04-06T00:23:55.023Z,36.18
2023-04-06T00:24:16.740Z,36.42
2023-04-06T00:24:38.648Z,35.98
2023-04-06T00:25:00.637Z,35.71
2023-04-06T00:25:23.342Z,35.86
2023-04-06T00:25:45.203Z,36.36
2023-04-06T00:26:06.953Z,36.53
2023-04-06T00:26:28.730Z,36.35
2023-04-06T00:26:51.270Z,36.05
2023-04-06T00:27:14.196Z,35.72
2023-04-06T00:27:36.013Z,35.68
2023-04-06T00:27:58.044Z,35.04
2023-04-06T00:28:25.973Z,35.04
2023-04-06T00:28:48.644Z,35.21
2023-04-06T00:29:10.534Z,35.07
2023-04-06T00:29:32.489Z,35.25
2023-04-06T00:29:54.264Z,35.20
2023-04-06T00:30:17.002Z,35.25
2023-04-06T00:30:38.719Z,35.12
2023-04-06T00:31:00.654Z,35.42
2023-04-06T00:31:22.395Z,35.42
2023-04-06T00:31:44.412Z,35.21
2023-04-06T00:32:07.188Z,35.09
2023-04-06T00:32:29.325Z,35.30
2023-04-06T00:32:52.551Z,35.13
2023-04-06T00:33:14.703Z,34.98
2023-04-06T00:33:36.549Z,35.04
2023-04-06T00:33:59.030Z,34.89
2023-04-06T00:34:21.725Z,34.99
2023-04-06T00:34:43.698Z,34.70
2023-04-06T00:35:06.870Z,34.72
2023-04-06T00:35:28.692Z,34.35
2023-04-06T00:35:54.367Z,34.62
2023-04-06T00:36:17.126Z,34.52
2023-04-06T00:36:39.350Z,34.44
2023-04-06T00:37:01.145Z,34.56
2023-04-06T00:37:24.079Z,34.57
2023-04-06T00:37:47.667Z,34.70
2023-04-06T00:38:10.253Z,34.61
2023-04-06T00:38:32.657Z,34.89
2023-04-06T00:38:56.016Z,34.69
2023-04-06T00:39:19.745Z,34.51
2023-04-06T00:39:43.744Z,34.64
2023-04-06T00:40:07.847Z,34.50
2023-04-06T00:40:29.745Z,34.56
2023-04-06T00:40:51.515Z,34.48
2023-04-06T00:41:13.595Z,34.47
2023-04-06T00:41:37.842Z,34.68
2023-04-06T00:41:59.945Z,34.78
2023-04-06T00:42:26.635Z,34.78
2023-04-06T00:42:48.816Z,34.78
2023-04-06T00:43:12.010Z,34.85
2023-04-06T00:43:33.792Z,34.92
2023-04-06T00:43:55.675Z,35.22
2023-04-06T00:44:18.399Z,35.39
2023-04-06T00:44:40.212Z,35.22
2023-04-06T00:45:02.782Z,35.36
2023-04-06T00:45:24.654Z,35.19
2023-04-06T00:45:47.393Z,35.53
2023-04-06T00:46:09.335Z,35.34
2023-04-06T00:46:31.361Z,35.16
2023-04-06T00:46:53.117Z,35.09
2023-04-06T00:47:14.853Z,35.27
2023-04-06T00:47:37.840Z,35.44
2023-04-06T00:48:01.179Z,35.22
2023-04-06T00:48:22.960Z,35.42
2023-04-06T00:48:44.754Z,35.54
2023-04-06T00:49:06.810Z,35.57
2023-04-06T00:49:29.897Z,35.67
2023-04-06T00:49:51.917Z,35.48
2023-04-06T00:50:13.738Z,35.38
2023-04-06T00:50:37.033Z,35.20
2023-04-06T00:50:59.091Z,35.20
2023-04-06T00:51:21.875Z,35.41
2023-04-06T00:51:43.857Z,35.28
2023-04-06T00:52:06.131Z,35.22
2023-04-06T00:52:28.594Z,35.19
2023-04-06T00:52:51.478Z,35.02
2023-04-06T00:53:18.637Z,34.98
2023-04-06T00:53:40.881Z,34.83
2023-04-06T00:54:03.982Z,34.85
2023-04-06T00:54:28.979Z,34.70
2023-04-06T00:54:51.274Z,34.91
2023-04-06T00:55:14.698Z,34.81
2023-04-06T00:55:40.077Z,34.84
2023-04-06T00:56:03.615Z,34.77
2023-04-06T00:56:32.467Z,34.66
2023-04-06T00:56:54.319Z,34.80
2023-04-06T00:57:17.206Z,34.70
2023-04-06T00:57:40.239Z,34.73
2023-04-06T00:58:02.115Z,34.88
2023-04-06T00:58:27.446Z,34.92
2023-04-06T00:58:58.230Z,34.74
2023-04-06T00:59:20.557Z,34.71
2023-04-06T00:59:43.096Z,34.67
2023-04-06T01:00:10.905Z,34.68
2023-04-06T01:00:33.460Z,34.60
2023-04-06T01:00:57.072Z,34.78
2023-04-06T01:01:19.261Z,34.67
2023-04-06T01:01:42.545Z,34.79
2023-04-06T01:02:20.297Z,34.97
2023-04-06T01:02:46.048Z,34.71
2023-04-06T01:03:10.676Z,34.82
2023-04-06T01:03:36.789Z,34.98
2023-04-06T01:03:59.778Z,35.05
2023-04-06T01:04:23.633Z,35.32
2023-04-06T01:04:46.930Z,35.15
2023-04-06T01:05:19.207Z,35.03
2023-04-06T01:05:47.503Z,35.14
2023-04-06T01:06:17.149Z,35.12
2023-04-06T01:06:48.649Z,35.09
2023-04-06T01:07:11.410Z,35.13
2023-04-06T01:07:40.550Z,35.35
2023-04-06T01:08:09.882Z,36.04
2023-04-06T01:08:31.707Z,35.75
2023-04-06T01:09:08.115Z,35.91
2023-04-06T01:09:30.570Z,36.19
2023-04-06T01:09:54.369Z,36.15
2023-04-06T01:10:26.376Z,36.23
2023-04-06T01:10:54.224Z,36.09
2023-04-06T01:11:21.634Z,35.98
2023-04-06T01:11:45.562Z,36.14
2023-04-06T01:12:11.421Z,36.11
2023-04-06T01:12:34.166Z,36.16
2023-04-06T01:12:58.863Z,35.80
2023-04-06T01:13:39.266Z,35.43
2023-04-06T01:14:05.930Z,35.20
2023-04-06T01:14:42.542Z,35.52
2023-04-06T01:15:05.260Z,35.75
2023-04-06T01:15:30.838Z,35.88
2023-04-06T01:15:53.210Z,35.94
2023-04-06T01:16:31.768Z,35.81
2023-04-06T01:17:05.726Z,35.97
2023-04-06T01:17:29.650Z,35.86
2023-04-06T01:17:57.293Z,35.55
2023-04-06T01:18:27.273Z,35.35
2023-04-06T01:18:57.104Z,35.44
2023-04-06T01:19:23.312Z,35.59
2023-04-06T01:19:50.217Z,35.06
2023-04-06T01:20:18.671Z,35.51
2023-04-06T01:20:41.463Z,35.39
2023-04-06T01:21:03.731Z,35.44
2023-04-06T01:21:26.346Z,35.34
2023-04-06T01:22:17.473Z,35.49
2023-04-06T01:22:46.164Z,35.45
2023-04-06T01:23:08.354Z,35.06
2023-04-06T01:23:32.439Z,35.09
2023-04-06T01:23:54.378Z,35.06
2023-04-06T01:24:23.833Z,34.48
2023-04-06T01:25:18.146Z,35.05
2023-04-06T01:25:51.212Z,35.00
2023-04-06T01:26:14.126Z,35.11
2023-04-06T01:26:37.063Z,35.13
2023-04-06T01:27:02.583Z,35.35
2023-04-06T01:27:34.542Z,35.28
2023-04-06T01:28:08.328Z,35.30
2023-04-06T01:28:49.064Z,35.28
2023-04-06T01:29:21.400Z,35.36
2023-04-06T01:29:43.830Z,35.40
2023-04-06T01:30:08.774Z,35.45
2023-04-06T01:30:50.696Z,35.17
2023-04-06T01:31:35.537Z,35.63
2023-04-06T01:31:57.574Z,35.40
2023-04-06T01:32:20.323Z,35.36
2023-04-06T01:32:45.950Z,35.40
2023-04-06T01:33:10.647Z,35.14
2023-04-06T01:33:58.268Z,35.32
2023-04-06T01:34:21.569Z,35.48
2023-04-06T01:34:43.363Z,35.10
2023-04-06T01:35:05.725Z,35.09
2023-04-06T01:35:31.203Z,34.92
2023-04-06T01:36:09.864Z,34.83
2023-04-06T01:36:34.377Z,34.18
2023-04-06T01:37:16.855Z,34.25
2023-04-06T01:37:38.690Z,34.04
2023-04-06T01:38:04.621Z,34.31
2023-04-06T01:38:29.060Z,34.17
2023-04-06T01:38:51.161Z,34.38
2023-04-06T01:39:15.967Z,34.18
2023-04-06T01:39:38.652Z,34.29
2023-04-06T01:40:02.289Z,34.24
2023-04-06T01:40:36.241Z,34.47
2023-04-06T01:40:58.964Z,35.09
2023-04-06T01:41:24.211Z,34.96
2023-04-06T01:41:48.240Z,34.58
2023-04-06T01:42:11.453Z,34.84
2023-04-06T01:42:34.836Z,34.74
2023-04-06T01:42:57.608Z,34.78
2023-04-06T01:43:28.579Z,34.42
2023-04-06T01:44:00.133Z,34.67
2023-04-06T01:44:26.020Z,34.33
2023-04-06T01:44:59.153Z,34.00
2023-04-06T01:45:21.378Z,33.94
2023-04-06T01:45:43.572Z,34.14
2023-04-06T01:46:18.437Z,34.02
2023-04-06T01:46:40.877Z,34.10
2023-04-06T01:47:03.910Z,34.22
2023-04-06T01:47:25.729Z,34.23
2023-04-06T01:47:48.582Z,34.20
2023-04-06T01:48:10.566Z,34.56
2023-04-06T01:48:32.654Z,34.56
2023-04-06T01:48:56.578Z,34.14
2023-04-06T01:49:31.483Z,34.03
2023-04-06T01:49:53.327Z,33.91
2023-04-06T01:50:15.433Z,34.02
2023-04-06T01:50:40.694Z,33.73
2023-04-06T01:51:04.252Z,33.81
2023-04-06T01:51:31.106Z,33.91
2023-04-06T01:51:56.042Z,34.18
2023-04-06T01:52:19.566Z,34.24
2023-04-06T01:52:47.533Z,33.86
2023-04-06T01:53:09.376Z,33.83
2023-04-06T01:53:33.425Z,34.09
2023-04-06T01:53:59.884Z,34.02
2023-04-06T01:54:57.326Z,33.50
2023-04-06T01:55:38.241Z,33.99
2023-04-06T01:56:21.230Z,34.41
2023-04-06T01:56:56.267Z,34.30
2023-04-06T01:57:26.289Z,34.08
2023-04-06T01:57:54.154Z,33.82
2023-04-06T01:58:27.139Z,33.86
2023-04-06T01:58:49.242Z,33.87
2023-04-06T01:59:13.302Z,33.93
2023-04-06T01:59:37.936Z,33.76
2023-04-06T02:00:07.742Z,33.56
2023-04-06T02:00:46.360Z,33.95
2023-04-06T02:01:08.451Z,33.91
2023-04-06T02:01:43.342Z,33.93
2023-04-06T02:02:05.511Z,33.93
2023-04-06T02:02:30.649Z,33.69
2023-04-06T02:02:56.779Z,33.96
2023-04-06T02:03:21.725Z,34.21
2023-04-06T02:03:47.551Z,34.43
2023-04-06T02:04:10.423Z,34.73
2023-04-06T02:04:32.132Z,34.67
2023-04-06T02:05:03.639Z,34.37
2023-04-06T02:05:26.203Z,34.29
2023-04-06T02:05:49.540Z,34.27
2023-04-06T02:06:18.904Z,34.76
2023-04-06T02:06:40.738Z,34.75
2023-04-06T02:07:03.927Z,34.42
2023-04-06T02:07:27.111Z,34.24
2023-04-06T02:07:50.056Z,34.14
2023-04-06T02:08:16.703Z,34.38
2023-04-06T02:08:38.462Z,34.53
2023-04-06T02:09:00.199Z,34.81
2023-04-06T02:09:22.034Z,34.75
2023-04-06T02:09:44.758Z,34.78
2023-04-06T02:10:15.821Z,34.55
2023-04-06T02:10:38.951Z,34.44
2023-04-06T02:11:10.238Z,34.90
2023-04-06T02:11:40.292Z,34.88
2023-04-06T02:12:03.091Z,34.49
2023-04-06T02:12:27.345Z,34.53
2023-04-06T02:12:50.197Z,34.39
2023-04-06T02:13:20.391Z,34.40
2023-04-06T02:13:46.312Z,34.11
2023-04-06T02:14:08.011Z,34.06
2023-04-06T02:14:35.024Z,34.24
2023-04-06T02:14:56.913Z,34.13
2023-04-06T02:15:19.633Z,34.50
2023-04-06T02:15:41.452Z,34.56
2023-04-06T02:16:03.685Z,34.69
2023-04-06T02:16:25.570Z,34.77
2023-04-06T02:16:47.389Z,35.06
2023-04-06T02:17:10.591Z,35.20
2023-04-06T02:17:32.774Z,35.06
2023-04-06T02:17:54.925Z,34.97
2023-04-06T02:18:18.594Z,34.94
2023-04-06T02:18:40.553Z,35.09
2023-04-06T02:19:03.622Z,34.84
2023-04-06T02:19:25.364Z,34.40
2023-04-06T02:19:47.077Z,34.42
2023-04-06T02:20:09.554Z,34.66
2023-04-06T02:20:31.223Z,34.78
2023-04-06T02:20:53.935Z,34.37
2023-04-06T02:21:18.406Z,34.48
2023-04-06T02:21:40.372Z,34.57
2023-04-06T02:22:02.094Z,34.74
2023-04-06T02:22:24.887Z,35.08
2023-04-06T02:22:47.969Z,35.02
2023-04-06T02:23:09.690Z,34.66
2023-04-06T02:23:31.483Z,34.42
2023-04-06T02:23:54.884Z,34.58
2023-04-06T02:24:17.104Z,34.50
2023-04-06T02:24:38.833Z,34.54
2023-04-06T02:25:00.535Z,34.70
2023-04-06T02:25:22.367Z,34.79
2023-04-06T02:25:45.170Z,34.77
2023-04-06T02:26:06.885Z,34.74
2023-04-06T02:26:28.921Z,34.79
2023-04-06T02:26:50.863Z,34.80
2023-04-06T02:27:12.547Z,34.82
2023-04-06T02:27:35.519Z,35.03
2023-04-06T02:27:57.232Z,35.08
2023-04-06T02:28:18.969Z,35.03
2023-04-06T02:28:40.885Z,35.02
2023-04-06T02:29:03.163Z,35.17
2023-04-06T02:29:25.886Z,35.05
2023-04-06T02:29:47.678Z,35.07
2023-04-06T02:30:13.599Z,35.24
2023-04-06T02:30:35.486Z,35.23
2023-04-06T02:30:58.244Z,35.42
2023-04-06T02:31:22.637Z,35.11
2023-04-06T02:31:45.368Z,35.23
2023-04-06T02:32:07.586Z,35.09
2023-04-06T02:32:30.500Z,35.13
2023-04-06T02:32:53.471Z,35.22
2023-04-06T02:33:15.700Z,35.27
2023-04-06T02:33:41.375Z,35.36
2023-04-06T02:34:03.758Z,35.61
2023-04-06T02:34:27.752Z,35.62
2023-04-06T02:34:49.652Z,35.62
2023-04-06T02:35:13.708Z,35.59
2023-04-06T02:35:36.216Z,35.49
2023-04-06T02:35:58.088Z,34.74
2023-04-06T02:36:21.997Z,34.47
2023-04-06T02:36:43.847Z,34.54
2023-04-06T02:37:05.728Z,34.25
2023-04-06T02:37:27.601Z,34.35
2023-04-06T02:37:51.265Z,34.27
2023-04-06T02:38:14.020Z,34.31
2023-04-06T02:38:37.204Z,34.38
2023-04-06T02:38:58.987Z,34.64
2023-04-06T02:39:20.895Z,34.57
2023-04-06T02:39:43.737Z,34.60
2023-04-06T02:40:07.190Z,34.38
2023-04-06T02:40:28.919Z,34.47
2023-04-06T02:40:52.141Z,34.25
2023-04-06T02:41:16.930Z,34.47
2023-04-06T02:41:39.912Z,34.52
2023-04-06T02:42:01.996Z,34.58
2023-04-06T02:42:24.983Z,34.78
2023-04-06T02:42:48.266Z,34.75
2023-04-06T02:43:12.183Z,34.43
2023-04-06T02:43:35.036Z,34.49
2023-04-06T02:44:01.603Z,34.48
2023-04-06T02:44:32.484Z,34.20
2023-04-06T02:44:54.402Z,34.22
2023-04-06T02:45:19.987Z,34.28
2023-04-06T02:45:43.100Z,34.10
2023-04-06T02:46:05.945Z,34.09
2023-04-06T02:46:31.848Z,33.97
2023-04-06T02:46:53.874Z,34.14
2023-04-06T02:47:18.107Z,34.02
2023-04-06T02:47:43.488Z,34.09
2023-04-06T02:48:07.090Z,34.10
2023-04-06T02:48:29.151Z,34.20
2023-04-06T02:48:51.945Z,34.10
2023-04-06T02:49:13.738Z,33.94
2023-04-06T02:49:35.981Z,34.03
2023-04-06T02:49:57.772Z,33.99
2023-04-06T02:50:20.943Z,33.98
2023-04-06T02:50:50.829Z,34.09
2023-04-06T02:51:12.515Z,34.07
2023-04-06T02:51:36.899Z,34.21
2023-04-06T02:52:13.439Z,34.13
2023-04-06T02:52:35.258Z,34.17
2023-04-06T02:52:58.709Z,34.18
2023-04-06T02:53:20.577Z,34.32
2023-04-06T02:53:42.292Z,34.38
2023-04-06T02:54:04.123Z,34.49
2023-04-06T02:54:25.939Z,34.35
2023-04-06T02:54:48.769Z,34.39
2023-04-06T02:55:17.378Z,34.42
2023-04-06T02:55:39.150Z,34.44
2023-04-06T02:56:01.108Z,34.36
2023-04-06T02:56:33.032Z,34.32
2023-04-06T02:56:54.839Z,34.43
2023-04-06T02:57:18.841Z,34.47
2023-04-06T02:57:41.475Z,34.32
2023-04-06T02:58:04.526Z,34.38
2023-04-06T02:58:33.830Z,34.76
2023-04-06T02:58:55.934Z,34.69
2023-04-06T02:59:21.564Z,34.54
2023-04-06T02:59:55.515Z,34.51
2023-04-06T03:00:23.863Z,34.41
2023-04-06T03:00:45.606Z,34.44
2023-04-06T03:01:07.473Z,34.50
2023-04-06T03:01:30.601Z,34.54
2023-04-06T03:01:56.748Z,34.41
2023-04-06T03:02:18.454Z,34.34
2023-04-06T03:02:40.955Z,34.63
2023-04-06T03:03:09.374Z,34.46
2023-04-06T03:03:32.515Z,34.52
2023-04-06T03:03:55.058Z,34.32
2023-04-06T03:04:22.723Z,34.34
2023-04-06T03:04:46.740Z,34.16
2023-04-06T03:05:23.716Z,34.17
2023-04-06T03:05:45.698Z,34.09
2023-04-06T03:06:08.968Z,34.09
2023-04-06T03:06:31.369Z,34.17
2023-04-06T03:07:01.352Z,34.21
2023-04-06T03:07:33.358Z,34.26
2023-04-06T03:07:55.312Z,34.47
2023-04-06T03:08:28.712Z,34.98
2023-04-06T03:08:50.690Z,34.95
2023-04-06T03:09:15.321Z,34.49
2023-04-06T03:09:39.293Z,34.33
2023-04-06T03:10:01.715Z,34.28
2023-04-06T03:10:26.043Z,34.24
2023-04-06T03:10:47.883Z,34.43
2023-04-06T03:11:12.034Z,34.46
2023-04-06T03:11:36.864Z,34.14
2023-04-06T03:11:58.622Z,34.00
2023-04-06T03:12:20.606Z,34.03
2023-04-06T03:13:07.222Z,34.28
2023-04-06T03:13:50.562Z,34.32
2023-04-06T03:14:12.272Z,34.40
2023-04-06T03:14:34.008Z,34.27
2023-04-06T03:14:56.976Z,34.34
2023-04-06T03:15:18.961Z,34.69
2023-04-06T03:15:46.066Z,35.01
2023-04-06T03:16:11.632Z,35.07
2023-04-06T03:16:34.458Z,35.09
2023-04-06T03:16:57.179Z,34.88
2023-04-06T03:17:21.362Z,34.87
2023-04-06T03:17:43.365Z,35.19
2023-04-06T03:18:13.356Z,35.23
2023-04-06T03:18:38.698Z,34.94
2023-04-06T03:19:00.934Z,35.39
2023-04-06T03:19:24.106Z,35.54
2023-04-06T03:19:47.483Z,35.63
2023-04-06T03:20:10.150Z,35.42
2023-04-06T03:20:31.931Z,35.54
2023-04-06T03:20:54.867Z,35.32
2023-04-06T03:21:20.256Z,35.33
2023-04-06T03:21:44.565Z,35.36
2023-04-06T03:22:07.504Z,35.05
2023-04-06T03:22:30.110Z,34.84
2023-04-06T03:22:52.881Z,34.68
2023-04-06T03:23:21.607Z,34.26
2023-04-06T03:23:51.456Z,34.26
2023-04-06T03:24:14.716Z,34.32
2023-04-06T03:24:37.564Z,34.52
2023-04-06T03:25:03.495Z,34.71
2023-04-06T03:25:26.675Z,34.55
2023-04-06T03:25:53.271Z,34.63
2023-04-06T03:26:16.644Z,34.54
2023-04-06T03:26:38.466Z,34.46
2023-04-06T03:27:02.505Z,34.53
2023-04-06T03:27:25.677Z,34.52
2023-04-06T03:27:47.540Z,34.55
2023-04-06T03:28:12.569Z,34.48
2023-04-06T03:28:45.535Z,34.37
2023-04-06T03:29:07.532Z,34.84
2023-04-06T03:29:30.875Z,34.51
2023-04-06T03:29:52.743Z,34.49
2023-04-06T03:30:22.486Z,34.41
2023-04-06T03:30:44.279Z,34.22
2023-04-06T03:31:06.702Z,33.99
2023-04-06T03:31:52.050Z,34.25
2023-04-06T03:32:23.290Z,34.35
2023-04-06T03:32:45.405Z,34.49
2023-04-06T03:33:07.149Z,34.50
2023-04-06T03:33:37.116Z,34.50
2023-04-06T03:34:00.001Z,34.37
2023-04-06T03:34:26.450Z,34.65
2023-04-06T03:34:48.167Z,34.59
2023-04-06T03:35:11.600Z,34.78
2023-04-06T03:35:33.730Z,35.10
2023-04-06T03:35:55.926Z,35.27
2023-04-06T03:36:21.431Z,35.21
2023-04-06T03:36:43.244Z,35.62
2023-04-06T03:37:10.494Z,35.68
2023-04-06T03:37:37.565Z,35.39
2023-04-06T03:38:01.455Z,35.39
2023-04-06T03:38:23.825Z,34.88
2023-04-06T03:38:45.688Z,34.79
2023-04-06T03:39:10.735Z,34.92
2023-04-06T03:39:36.118Z,35.10
2023-04-06T03:39:59.380Z,35.06
2023-04-06T03:40:21.177Z,35.21
2023-04-06T03:40:43.586Z,35.33
2023-04-06T03:41:05.562Z,35.65
2023-04-06T03:41:28.477Z,35.93
2023-04-06T03:42:01.836Z,35.93
2023-04-06T03:42:33.466Z,35.70
2023-04-06T03:43:06.198Z,35.39
2023-04-06T03:43:30.874Z,35.42
2023-04-06T03:43:52.668Z,35.47
2023-04-06T03:44:14.365Z,35.56
2023-04-06T03:44:37.110Z,35.68
2023-04-06T03:44:59.480Z,35.61
2023-04-06T03:45:21.330Z,35.68
2023-04-06T03:45:45.989Z,35.53
2023-04-06T03:46:10.276Z,35.49
2023-04-06T03:46:32.317Z,35.67
2023-04-06T03:46:54.875Z,35.73
2023-04-06T03:47:17.238Z,35.88
2023-04-06T03:47:40.155Z,35.77
2023-04-06T03:48:03.792Z,35.49
2023-04-06T03:48:28.673Z,35.53
2023-04-06T03:48:50.421Z,35.68
2023-04-06T03:49:14.781Z,35.49
2023-04-06T03:49:40.569Z,35.48
2023-04-06T03:50:05.039Z,35.50
2023-04-06T03:50:28.937Z,35.40
2023-04-06T03:50:51.820Z,35.60
2023-04-06T03:51:13.532Z,35.63
2023-04-06T03:51:35.332Z,35.63
2023-04-06T03:51:57.555Z,35.74
2023-04-06T03:52:20.241Z,35.52
2023-04-06T03:52:42.002Z,35.68
2023-04-06T03:53:04.097Z,35.83
2023-04-06T03:53:26.057Z,35.32
2023-04-06T03:53:47.761Z,35.53
2023-04-06T03:54:11.828Z,35.27
2023-04-06T03:54:33.594Z,35.20
2023-04-06T03:54:55.455Z,34.88
2023-04-06T03:55:17.337Z,34.95
2023-04-06T03:55:40.696Z,35.22
2023-04-06T03:56:04.741Z,35.67
2023-04-06T03:56:27.444Z,35.91
2023-04-06T03:56:49.843Z,36.21
2023-04-06T03:57:12.575Z,35.93
2023-04-06T03:57:34.292Z,36.25
2023-04-06T03:57:55.969Z,36.04
2023-04-06T03:58:17.798Z,35.98
2023-04-06T03:58:41.889Z,36.09
2023-04-06T03:59:03.669Z,36.23
2023-04-06T03:59:25.457Z,36.21
2023-04-06T03:59:48.422Z,36.33
2023-04-06T04:00:12.555Z,36.33
2023-04-06T04:00:37.374Z,35.73
2023-04-06T04:00:59.079Z,35.64
2023-04-06T04:01:21.073Z,35.77
2023-04-06T04:01:43.294Z,35.43
2023-04-06T04:02:06.299Z,35.53
2023-04-06T04:02:28.233Z,35.52
2023-04-06T04:02:50.109Z,35.49
2023-04-06T04:03:12.002Z,35.54
2023-04-06T04:03:35.068Z,35.70
2023-04-06T04:03:56.953Z,35.93
2023-04-06T04:04:18.776Z,36.21
2023-04-06T04:04:40.610Z,36.44
2023-04-06T04:05:02.750Z,36.28
2023-04-06T04:05:26.425Z,36.17
2023-04-06T04:05:48.712Z,36.03
2023-04-06T04:06:10.426Z,36.36
2023-04-06T04:06:32.226Z,36.09
2023-04-06T04:06:54.104Z,36.32
2023-04-06T04:07:16.865Z,36.53
2023-04-06T04:07:38.611Z,36.31
2023-04-06T04:08:02.115Z,36.33
2023-04-06T04:08:26.123Z,36.31
2023-04-06T04:08:47.898Z,36.30
2023-04-06T04:09:12.170Z,36.39
2023-04-06T04:09:33.879Z,36.29
2023-04-06T04:09:55.789Z,36.33
2023-04-06T04:10:17.559Z,36.08
2023-04-06T04:10:39.388Z,36.16
2023-04-06T04:11:01.418Z,36.21
2023-04-06T04:11:24.902Z,36.17
2023-04-06T04:11:52.730Z,36.14
2023-04-06T04:12:17.604Z,36.18
2023-04-06T04:12:39.509Z,36.13
2023-04-06T04:13:02.378Z,36.01
2023-04-06T04:13:24.277Z,36.12
2023-04-06T04:13:47.279Z,36.26
2023-04-06T04:14:09.250Z,36.23
2023-04-06T04:14:31.082Z,36.00
2023-04-06T04:14:53.038Z,35.64
2023-04-06T04:15:16.113Z,35.57
2023-04-06T04:15:37.981Z,35.64
2023-04-06T04:15:59.754Z,35.94
2023-04-06T04:16:21.653Z,35.80
2023-04-06T04:16:44.405Z,35.59
2023-04-06T04:17:06.122Z,35.63
2023-04-06T04:17:27.885Z,35.33
2023-04-06T04:17:50.519Z,35.38
2023-04-06T04:18:12.328Z,35.44
2023-04-06T04:18:36.203Z,35.45
2023-04-06T04:18:59.109Z,35.46
2023-04-06T04:19:20.954Z,35.75
2023-04-06T04:19:42.911Z,35.72
2023-04-06T04:20:06.730Z,35.35
2023-04-06T04:20:29.439Z,35.00
2023-04-06T04:20:51.900Z,34.94
2023-04-06T04:21:15.474Z,34.71
2023-04-06T04:21:45.318Z,34.80
2023-04-06T04:22:09.132Z,34.79
2023-04-06T04:22:34.481Z,34.86
2023-04-06T04:22:56.297Z,34.79
2023-04-06T04:23:19.136Z,34.66
2023-04-06T04:23:41.294Z,34.58
2023-04-06T04:24:03.373Z,34.73
2023-04-06T04:24:27.181Z,34.74
2023-04-06T04:24:50.217Z,34.84
2023-04-06T04:25:12.105Z,34.80
2023-04-06T04:25:39.391Z,34.79
2023-04-06T04:26:01.418Z,34.89
2023-04-06T04:26:24.867Z,34.82
2023-04-06T04:26:46.595Z,34.92
2023-04-06T04:27:10.818Z,34.95
2023-04-06T04:27:33.707Z,34.92
2023-04-06T04:27:55.812Z,34.96
2023-04-06T04:28:19.762Z,34.88
2023-04-06T04:28:43.301Z,34.97
2023-04-06T04:29:05.317Z,35.16
2023-04-06T04:29:27.026Z,35.14
2023-04-06T04:29:49.558Z,34.96
2023-04-06T04:30:12.909Z,34.91
2023-04-06T04:30:35.729Z,35.02
2023-04-06T04:31:01.676Z,35.08
2023-04-06T04:31:26.733Z,35.19
2023-04-06T04:31:53.281Z,35.14
2023-04-06T04:32:16.487Z,35.13
2023-04-06T04:32:38.887Z,35.13
2023-04-06T04:33:02.615Z,35.21
2023-04-06T04:33:24.677Z,35.14
2023-04-06T04:33:49.941Z,35.18
2023-04-06T04:34:21.494Z,35.25
2023-04-06T04:34:43.209Z,35.32
2023-04-06T04:35:12.309Z,35.43
2023-04-06T04:35:39.242Z,35.55
2023-04-06T04:36:02.133Z,35.43
2023-04-06T04:36:30.798Z,35.65
2023-04-06T04:36:54.908Z,35.41
2023-04-06T04:37:26.427Z,35.58
2023-04-06T04:37:51.966Z,35.67
2023-04-06T04:38:13.709Z,35.90
2023-04-06T04:38:37.819Z,35.84
2023-04-06T04:39:02.034Z,35.85
2023-04-06T04:39:28.922Z,35.72
2023-04-06T04:39:57.654Z,35.82
2023-04-06T04:40:19.346Z,35.95
2023-04-06T04:41:00.785Z,36.12
2023-04-06T04:41:22.634Z,36.17
2023-04-06T04:41:45.318Z,36.03
2023-04-06T04:42:08.941Z,36.05
2023-04-06T04:42:34.884Z,36.15
2023-04-06T04:42:57.781Z,36.07
2023-04-06T04:43:26.722Z,36.11
2023-04-06T04:43:48.951Z,36.12
2023-04-06T04:44:16.771Z,36.28
2023-04-06T04:44:39.228Z,36.20
2023-04-06T04:45:01.264Z,36.08
2023-04-06T04:45:32.544Z,36.22
2023-04-06T04:46:00.487Z,36.19
2023-04-06T04:46:31.891Z,36.05
2023-04-06T04:46:53.838Z,35.85
2023-04-06T04:47:21.281Z,35.29
2023-04-06T04:47:43.859Z,35.38
2023-04-06T04:48:09.840Z,35.33
2023-04-06T04:48:45.138Z,35.23
2023-04-06T04:49:06.959Z,35.07
2023-04-06T04:49:32.136Z,35.10
2023-04-06T04:49:55.288Z,34.77
2023-04-06T04:50:21.400Z,35.06
2023-04-06T04:50:46.135Z,35.14
2023-04-06T04:51:09.932Z,35.21
2023-04-06T04:51:53.435Z,35.14
2023-04-06T04:52:21.782Z,35.27
2023-04-06T04:52:56.009Z,35.24
2023-04-06T04:53:23.153Z,35.41
2023-04-06T04:53:48.205Z,35.38
2023-04-06T04:54:15.804Z,35.49
2023-04-06T04:54:41.964Z,35.55
2023-04-06T04:55:08.511Z,35.52
2023-04-06T04:55:30.408Z,35.17
2023-04-06T04:55:54.284Z,35.30
2023-04-06T04:56:16.179Z,35.37
2023-04-06T04:56:39.979Z,35.45
2023-04-06T04:57:27.781Z,35.36
2023-04-06T04:57:49.848Z,35.20
2023-04-06T04:58:17.564Z,35.22
2023-04-06T04:58:51.000Z,35.30
2023-04-06T04:59:13.512Z,35.39
2023-04-06T04:59:38.589Z,35.41
2023-04-06T05:00:10.640Z,35.35
2023-04-06T05:00:35.849Z,35.32
2023-04-06T05:00:57.723Z,35.36
2023-04-06T05:01:19.879Z,35.32
2023-04-06T05:01:54.250Z,35.24
2023-04-06T05:02:19.112Z,35.31
2023-04-06T05:02:55.809Z,35.13
2023-04-06T05:03:27.640Z,35.53
2023-04-06T05:03:54.999Z,35.46
2023-04-06T05:04:17.302Z,35.34
2023-04-06T05:04:39.168Z,35.29
2023-04-06T05:05:02.970Z,35.34
2023-04-06T05:05:25.969Z,35.33
2023-04-06T05:05:47.917Z,35.42
2023-04-06T05:06:13.395Z,35.34
2023-04-06T05:06:36.365Z,35.46
2023-04-06T05:07:05.748Z,35.29
2023-04-06T05:07:29.136Z,35.41
2023-04-06T05:07:52.922Z,35.46
2023-04-06T05:08:28.762Z,35.47
2023-04-06T05:08:50.544Z,35.43
2023-04-06T05:09:13.383Z,35.33
2023-04-06T05:09:37.357Z,35.29
2023-04-06T05:10:01.125Z,35.39
2023-04-06T05:10:28.042Z,35.54
2023-04-06T05:10:54.401Z,35.74
2023-04-06T05:11:16.846Z,35.77
2023-04-06T05:11:42.573Z,35.59
2023-04-06T05:12:05.531Z,35.80
2023-04-06T05:12:32.474Z,35.63
2023-04-06T05:13:01.624Z,35.63
2023-04-06T05:13:24.696Z,35.51
2023-04-06T05:13:48.264Z,35.59
2023-04-06T05:14:14.650Z,35.56
2023-04-06T05:14:36.618Z,35.57
2023-04-06T05:15:02.532Z,35.52
2023-04-06T05:15:24.451Z,35.51
2023-04-06T05:15:51.209Z,35.49
2023-04-06T05:16:26.569Z,35.56